РПИ Бишкек

Руководитель РПИ

Evgeny Vygornitsky*

Инструкторы РПИ
Evgeny Vygornitsky (Supervisor)
Vitaliy Alekseyev (Instructor)
Входит в состав
ЗЦ Центральная Азия

Диспетчеры РПИ

Диспетчер Рейтинг Допуски *

Аэропорты РПИ

ICAO Город Название Погода
UCFM Бишкек Манас UCFM 161730Z 25002MPS 6000 BKN030CB 05/01 Q1013 R08/0///95 NOSIG
UCFL Иссык-Куль Иссык-Куль UCFL 161700Z 32002MPS 9999 BKN016CB BKN083 01/M02 Q1016 R07/CLRD95
UCFP Каракол Каракол